Time;durP1;ratioP1;P1;durP2;ratioP2;P2;SDS_P1;SDS_P2;PMS_P1;PMS_P2;Temp;Humidity;BMP_temperature;BMP_pressure;BME280_temperature;BME280_humidity;BME280_pressure;Samples;Min_cycle;Max_cycle;Signal;HPM_P1;HPM_P2
2021/06/29 00:02:23;;;;;;;5.70;4.03;;;25.20;66.20;;;;;;5072933;28;20035;-67
2021/06/29 00:04:53;;;;;;;5.35;4.55;;;25.20;66.10;;;;;;5072874;28;20017;-67
2021/06/29 00:07:19;;;;;;;4.88;3.97;;;25.20;66.20;;;;;;5073082;28;20350;-67
2021/06/29 00:09:45;;;;;;;4.95;4.45;;;25.20;66.10;;;;;;5072892;28;20029;-67
2021/06/29 00:12:12;;;;;;;7.28;4.93;;;25.20;65.90;;;;;;5072845;28;20396;-67
2021/06/29 00:14:38;;;;;;;8.20;4.72;;;25.20;65.90;;;;;;5073018;28;20028;-67
2021/06/29 00:17:04;;;;;;;5.70;4.38;;;25.20;65.90;;;;;;5072828;28;20024;-67
2021/06/29 00:19:29;;;;;;;4.63;4.13;;;25.20;65.90;;;;;;5072787;28;20078;-67
2021/06/29 00:21:55;;;;;;;5.43;3.83;;;25.20;65.90;;;;;;5072535;28;20029;-67
2021/06/29 00:24:21;;;;;;;5.85;4.22;;;25.20;66.00;;;;;;5072788;28;20036;-67
2021/06/29 00:26:46;;;;;;;8.63;4.35;;;25.20;66.00;;;;;;5072359;28;20033;-67
2021/06/29 00:29:12;;;;;;;6.13;4.30;;;25.20;66.00;;;;;;5071717;28;20024;-66
2021/06/29 00:31:38;;;;;;;6.15;4.18;;;25.20;66.10;;;;;;5072430;28;20394;-66
2021/06/29 00:34:03;;;;;;;7.28;4.95;;;25.20;66.20;;;;;;5072880;28;20036;-66
2021/06/29 00:36:29;;;;;;;5.10;4.32;;;25.20;66.30;;;;;;5072731;28;20379;-65
2021/06/29 00:38:55;;;;;;;5.13;4.68;;;25.20;66.40;;;;;;5072323;28;20049;-66
2021/06/29 00:41:21;;;;;;;4.60;4.10;;;25.20;66.40;;;;;;5072885;28;20020;-67
2021/06/29 00:43:51;;;;;;;6.97;4.72;;;25.20;66.30;;;;;;5072685;28;20484;-66
2021/06/29 00:46:18;;;;;;;5.20;4.43;;;25.20;66.30;;;;;;5072752;28;20066;-66
2021/06/29 00:48:45;;;;;;;8.93;5.47;;;25.20;66.50;;;;;;5072325;28;20016;-66
2021/06/29 00:51:15;;;;;;;6.05;5.45;;;25.20;66.60;;;;;;5071251;28;20059;-66
2021/06/29 00:53:41;;;;;;;;;;;25.20;66.80;;;;;;5072681;28;20044;-66
2021/06/29 00:56:14;;;;;;;6.78;5.75;;;25.20;66.80;;;;;;5072531;28;19905;-66
2021/06/29 00:58:43;;;;;;;6.65;5.93;;;25.20;66.80;;;;;;5072391;28;20025;-66
2021/06/29 01:01:09;;;;;;;6.65;5.90;;;25.10;66.90;;;;;;5072504;28;20060;-66
2021/06/29 01:03:36;;;;;;;8.88;6.63;;;25.20;67.00;;;;;;5072238;28;20120;-66
2021/06/29 01:06:03;;;;;;;7.82;6.97;;;25.10;66.90;;;;;;5076603;28;20120;-66
2021/06/29 01:08:30;;;;;;;10.30;7.30;;;25.20;66.90;;;;;;5076032;28;20021;-66
2021/06/29 01:10:56;;;;;;;9.07;7.05;;;25.10;66.80;;;;;;5076565;28;20081;-67
2021/06/29 01:13:40;;;;;;;7.68;6.88;;;25.10;66.70;;;;;;5076316;28;20032;-67
2021/06/29 01:16:06;;;;;;;8.52;7.55;;;25.10;66.70;;;;;;5076447;28;20031;-68
2021/06/29 01:18:37;;;;;;;8.02;7.00;;;25.10;66.80;;;;;;5074975;28;20055;-67
2021/06/29 01:21:04;;;;;;;11.13;7.30;;;25.10;66.70;;;;;;5075864;28;20032;-66
2021/06/29 01:23:30;;;;;;;7.13;6.53;;;25.10;66.60;;;;;;5076177;28;20029;-66
2021/06/29 01:26:20;;;;;;;8.73;7.32;;;25.10;66.60;;;;;;5075506;28;20480;-65
2021/06/29 01:31:27;;;;;;;10.18;6.65;;;25.10;66.50;;;;;;5075652;28;20473;-65
2021/06/29 01:33:53;;;;;;;8.00;7.20;;;25.10;66.40;;;;;;5075730;28;20024;-66
2021/06/29 01:36:23;;;;;;;7.47;6.63;;;25.10;66.40;;;;;;5075705;28;20032;-66
2021/06/29 01:38:50;;;;;;;7.20;6.60;;;25.10;66.30;;;;;;5075463;28;20106;-66
2021/06/29 01:41:20;;;;;;;7.15;6.45;;;25.10;66.10;;;;;;5075517;28;20089;-66
2021/06/29 01:44:30;;;;;;;6.68;6.07;;;25.10;66.00;;;;;;5075668;28;20149;-66
2021/06/29 01:46:38;;;;;;;7.82;7.00;;;25.10;66.00;;;;;;5074764;28;20033;-66
2021/06/29 01:49:04;;;;;;;7.25;6.57;;;25.10;65.80;;;;;;5075971;28;20024;-66
2021/06/29 01:51:30;;;;;;;7.22;6.45;;;25.10;65.70;;;;;;5075322;28;20026;-66
2021/06/29 01:53:55;;;;;;;8.18;6.72;;;25.10;65.70;;;;;;5075423;28;20388;-66
2021/06/29 01:56:43;;;;;;;8.10;6.88;;;25.10;65.70;;;;;;5074900;28;20021;-66
2021/06/29 01:59:10;;;;;;;7.03;6.10;;;25.10;65.50;;;;;;5075255;28;20114;-66
2021/06/29 02:01:37;;;;;;;6.88;6.13;;;25.10;65.40;;;;;;5075157;28;20020;-66
2021/06/29 02:04:04;;;;;;;8.07;7.22;;;25.00;65.30;;;;;;5075269;28;20116;-66
2021/06/29 02:06:29;;;;;;;9.05;6.30;;;25.10;65.40;;;;;;5075396;28;20135;-66
2021/06/29 02:08:55;;;;;;;8.48;6.72;;;25.10;65.20;;;;;;5075333;28;20473;-66
2021/06/29 02:11:21;;;;;;;6.68;6.00;;;25.10;65.10;;;;;;5075092;28;20028;-66
2021/06/29 02:13:47;;;;;;;8.32;7.00;;;25.00;65.10;;;;;;5073830;28;20033;-66
2021/06/29 02:16:12;;;;;;;7.90;6.07;;;25.00;65.00;;;;;;5074074;28;20027;-66
2021/06/29 02:18:38;;;;;;;6.10;5.53;;;25.00;64.90;;;;;;5073776;28;20028;-66
2021/06/29 02:21:05;;;;;;;10.27;7.43;;;25.00;64.90;;;;;;5075130;28;20471;-66
2021/06/29 02:23:32;;;;;;;6.68;6.05;;;25.00;64.80;;;;;;5074858;28;20064;-66
2021/06/29 02:25:58;;;;;;;5.97;5.45;;;25.00;64.80;;;;;;5074718;28;20027;-66
2021/06/29 02:28:24;;;;;;;6.38;5.78;;;25.00;64.70;;;;;;5074780;28;20503;-66
2021/06/29 02:30:50;;;;;;;7.30;6.10;;;25.00;64.70;;;;;;5074824;28;20104;-66
2021/06/29 02:33:16;;;;;;;7.68;5.72;;;25.00;64.50;;;;;;5074710;28;20047;-66
2021/06/29 02:35:41;;;;;;;7.20;5.80;;;25.00;64.40;;;;;;5075015;28;20408;-66
2021/06/29 02:38:07;;;;;;;7.00;6.40;;;25.00;64.50;;;;;;5074261;28;20528;-66
2021/06/29 02:40:33;;;;;;;7.35;5.95;;;25.00;64.50;;;;;;5074669;28;20032;-66
2021/06/29 02:42:59;;;;;;;6.00;5.40;;;25.00;64.50;;;;;;5074636;28;20104;-66
2021/06/29 02:45:26;;;;;;;6.05;5.45;;;25.00;64.60;;;;;;5074547;28;20048;-66
2021/06/29 02:47:57;;;;;;;7.18;5.78;;;25.00;64.60;;;;;;5074603;28;20029;-66
2021/06/29 02:50:22;;;;;;;8.93;6.07;;;25.00;64.60;;;;;;5074378;28;20081;-66
2021/06/29 02:52:48;;;;;;;6.63;6.03;;;25.00;64.60;;;;;;5073165;28;20036;-66
2021/06/29 02:55:15;;;;;;;6.60;5.93;;;24.90;64.40;;;;;;5074162;28;20548;-66
2021/06/29 02:57:41;;;;;;;8.30;5.43;;;25.00;64.20;;;;;;5074360;28;20049;-66
2021/06/29 03:00:18;;;;;;;6.57;5.40;;;25.00;63.80;;;;;;5074023;28;20035;-66
2021/06/29 03:02:45;;;;;;;6.97;5.30;;;24.90;63.60;;;;;;5074421;28;20400;-66
2021/06/29 03:05:11;;;;;;;5.80;5.10;;;24.90;63.60;;;;;;5072592;28;20392;-67
2021/06/29 03:07:37;;;;;;;7.45;5.82;;;24.90;63.50;;;;;;5074003;28;20095;-67
2021/06/29 03:10:04;;;;;;;6.65;5.30;;;24.90;63.30;;;;;;5073935;28;20468;-67
2021/06/29 03:12:30;;;;;;;7.05;5.05;;;24.90;63.30;;;;;;5073871;28;20032;-67
2021/06/29 03:14:58;;;;;;;6.15;5.55;;;24.90;63.20;;;;;;5074121;28;20451;-67
2021/06/29 03:17:24;;;;;;;6.68;4.97;;;24.80;63.10;;;;;;5074087;28;20024;-67
2021/06/29 03:19:50;;;;;;;12.63;5.53;;;24.80;63.10;;;;;;5073917;28;20035;-67
2021/06/29 03:22:16;;;;;;;6.00;5.40;;;24.90;63.20;;;;;;5073948;28;20033;-67
2021/06/29 03:24:42;;;;;;;7.80;5.55;;;24.80;63.20;;;;;;5073903;28;20051;-66
2021/06/29 03:27:08;;;;;;;7.03;6.30;;;24.80;63.20;;;;;;5073282;28;20029;-66
2021/06/29 03:29:35;;;;;;;8.48;5.57;;;24.80;63.30;;;;;;5073975;28;20027;-66
2021/06/29 03:32:01;;;;;;;6.47;5.88;;;24.80;63.30;;;;;;5073550;28;20032;-66
2021/06/29 03:34:27;;;;;;;8.32;6.03;;;24.80;63.20;;;;;;5073623;28;20021;-66
2021/06/29 03:36:52;;;;;;;6.80;5.28;;;24.80;63.10;;;;;;5072928;28;20028;-66
2021/06/29 03:39:18;;;;;;;6.25;5.32;;;24.80;63.10;;;;;;5073696;28;20028;-66
2021/06/29 03:41:45;;;;;;;5.88;5.35;;;24.80;63.10;;;;;;5073229;28;20025;-66
2021/06/29 03:44:11;;;;;;;6.75;5.07;;;24.80;63.00;;;;;;5073524;28;20035;-66
2021/06/29 03:46:37;;;;;;;5.53;5.00;;;24.80;63.00;;;;;;5073037;28;20021;-66
2021/06/29 03:49:03;;;;;;;8.75;5.43;;;24.80;63.00;;;;;;5073300;28;20046;-66
2021/06/29 03:51:29;;;;;;;11.93;5.50;;;24.80;63.00;;;;;;5072923;28;20028;-66
2021/06/29 03:53:55;;;;;;;7.72;5.72;;;24.80;62.90;;;;;;5073198;28;20037;-67
2021/06/29 03:56:24;;;;;;;7.10;5.35;;;24.80;62.80;;;;;;5073053;28;20029;-67
2021/06/29 03:58:51;;;;;;;8.35;5.22;;;24.80;62.70;;;;;;5073202;28;20431;-67
2021/06/29 04:01:17;;;;;;;6.30;5.70;;;24.80;62.70;;;;;;5073290;28;20078;-67
2021/06/29 04:03:43;;;;;;;5.80;5.07;;;24.80;62.70;;;;;;5072942;28;20036;-67
2021/06/29 04:06:08;;;;;;;6.43;4.80;;;24.80;62.70;;;;;;5072941;28;20032;-67
2021/06/29 04:08:34;;;;;;;5.60;5.10;;;24.80;62.70;;;;;;5073167;28;20100;-67
2021/06/29 04:10:59;;;;;;;10.02;6.20;;;24.80;62.70;;;;;;5072974;28;20024;-67
2021/06/29 04:13:25;;;;;;;6.70;5.75;;;24.80;62.70;;;;;;5072863;28;20036;-67
2021/06/29 04:15:51;;;;;;;5.25;4.75;;;24.80;62.60;;;;;;5073116;28;20024;-67
2021/06/29 04:18:17;;;;;;;6.75;5.00;;;24.80;62.60;;;;;;5072748;28;20036;-67
2021/06/29 04:20:43;;;;;;;6.18;5.03;;;24.80;62.60;;;;;;5073136;28;20064;-66
2021/06/29 04:23:09;;;;;;;6.78;5.10;;;24.80;62.60;;;;;;5072583;28;20059;-67
2021/06/29 04:25:35;;;;;;;5.28;4.75;;;24.80;62.50;;;;;;5072636;28;20031;-67
2021/06/29 04:28:00;;;;;;;5.45;4.95;;;24.80;62.60;;;;;;5072587;28;20021;-67
2021/06/29 04:30:26;;;;;;;5.63;4.68;;;24.80;62.60;;;;;;5072800;28;20082;-67
2021/06/29 04:32:52;;;;;;;5.95;4.28;;;24.80;62.50;;;;;;5072791;28;20412;-67
2021/06/29 04:35:17;;;;;;;7.28;4.60;;;24.80;62.40;;;;;;5072582;28;20028;-67
2021/06/29 04:37:43;;;;;;;5.95;4.70;;;24.80;62.30;;;;;;5072149;28;20122;-67
2021/06/29 04:40:09;;;;;;;6.80;6.10;;;24.80;62.40;;;;;;5072223;28;20103;-67
2021/06/29 04:42:35;;;;;;;5.43;4.68;;;24.80;62.40;;;;;;5072557;28;20039;-66
2021/06/29 04:45:02;;;;;;;5.15;4.65;;;24.80;62.30;;;;;;5072612;28;20384;-67
2021/06/29 04:47:27;;;;;;;7.35;5.03;;;24.80;62.20;;;;;;5072707;28;20020;-67
2021/06/29 04:49:55;;;;;;;5.65;4.20;;;24.80;62.20;;;;;;5072510;28;20036;-67
2021/06/29 04:52:22;;;;;;;5.38;4.53;;;24.80;62.20;;;;;;5071279;28;20060;-67
2021/06/29 04:54:47;;;;;;;8.13;4.90;;;24.80;62.10;;;;;;5072515;28;20025;-67
2021/06/29 04:57:13;;;;;;;6.55;4.90;;;24.80;61.90;;;;;;5072491;28;20020;-67
2021/06/29 04:59:38;;;;;;;5.65;4.40;;;24.80;61.80;;;;;;5072381;28;20024;-67
2021/06/29 05:02:04;;;;;;;6.53;4.78;;;24.80;62.50;;;;;;5072485;28;20464;-67
2021/06/29 05:04:30;;;;;;;9.75;4.55;;;24.80;61.70;;;;;;5072432;28;20029;-67
2021/06/29 05:06:55;;;;;;;6.57;4.72;;;24.80;61.60;;;;;;5072628;28;20044;-67
2021/06/29 05:09:21;;;;;;;7.13;4.47;;;24.80;61.60;;;;;;5071129;28;20086;-67
2021/06/29 05:11:47;;;;;;;5.03;4.50;;;24.80;61.70;;;;;;5072699;28;20025;-67
2021/06/29 05:14:12;;;;;;;5.45;4.55;;;24.80;61.80;;;;;;5072474;28;20040;-67
2021/06/29 05:16:38;;;;;;;7.60;4.38;;;24.80;61.90;;;;;;5072402;28;20419;-67
2021/06/29 05:19:04;;;;;;;5.40;3.95;;;24.80;61.90;;;;;;5072409;28;20028;-67
2021/06/29 05:21:30;;;;;;;6.55;4.30;;;24.80;62.00;;;;;;5070874;28;20029;-67
2021/06/29 05:23:56;;;;;;;4.95;4.40;;;24.80;61.90;;;;;;5072416;28;20499;-67
2021/06/29 05:26:21;;;;;;;7.22;4.10;;;24.80;61.90;;;;;;5072275;28;20029;-67
2021/06/29 05:28:47;;;;;;;5.68;4.00;;;24.80;62.00;;;;;;5072537;28;20475;-67
2021/06/29 05:31:12;;;;;;;6.70;4.35;;;24.80;61.90;;;;;;5072098;28;20486;-67
2021/06/29 05:33:38;;;;;;;6.90;4.90;;;24.80;61.90;;;;;;5072331;28;20523;-66
2021/06/29 05:36:04;;;;;;;6.18;4.60;;;24.80;61.90;;;;;;5070865;28;20103;-66
2021/06/29 05:38:30;;;;;;;5.32;4.78;;;24.80;62.00;;;;;;5072042;28;20095;-66
2021/06/29 05:40:56;;;;;;;5.20;4.65;;;24.80;62.10;;;;;;5072331;28;20079;-66
2021/06/29 05:43:22;;;;;;;4.93;4.43;;;24.80;62.00;;;;;;5072433;28;20079;-66
2021/06/29 05:45:47;;;;;;;6.72;4.40;;;24.80;62.00;;;;;;5072064;28;20028;-66
2021/06/29 05:48:16;;;;;;;5.65;4.28;;;24.80;61.90;;;;;;5072238;28;20029;-66
2021/06/29 05:50:42;;;;;;;5.85;4.38;;;24.80;62.00;;;;;;5073181;28;20104;-66
2021/06/29 05:53:07;;;;;;;7.57;4.55;;;24.80;62.00;;;;;;5075369;28;20123;-67
2021/06/29 05:55:33;;;;;;;6.95;4.45;;;24.80;62.00;;;;;;5075343;28;20124;-66
2021/06/29 05:57:58;;;;;;;4.40;4.00;;;24.80;62.00;;;;;;5074429;28;20035;-66
2021/06/29 06:00:24;;;;;;;7.80;5.57;;;24.80;62.10;;;;;;5075921;28;20032;-66
2021/06/29 06:02:50;;;;;;;7.57;4.82;;;24.80;62.00;;;;;;5075378;28;20531;-66
2021/06/29 06:05:16;;;;;;;5.40;4.90;;;24.80;62.00;;;;;;5075350;28;20040;-66
2021/06/29 06:07:41;;;;;;;7.03;4.93;;;24.90;62.10;;;;;;5075137;28;20025;-66
2021/06/29 06:10:08;;;;;;;8.63;4.50;;;24.90;62.10;;;;;;5075544;28;20024;-67
2021/06/29 06:12:33;;;;;;;8.23;4.57;;;24.90;62.20;;;;;;5075118;28;20044;-67
2021/06/29 06:14:59;;;;;;;4.93;4.22;;;24.90;62.20;;;;;;5075711;28;20025;-66
2021/06/29 06:17:26;;;;;;;6.80;4.85;;;24.90;62.20;;;;;;5073939;28;20025;-67
2021/06/29 06:19:53;;;;;;;5.18;4.20;;;24.90;62.20;;;;;;5075360;28;20025;-67
2021/06/29 06:22:19;;;;;;;7.68;4.72;;;24.90;62.20;;;;;;5074817;28;20060;-68
2021/06/29 06:24:44;;;;;;;7.60;4.57;;;24.90;62.20;;;;;;5075340;28;20067;-67
2021/06/29 06:27:13;;;;;;;8.50;4.25;;;24.90;62.30;;;;;;5074842;28;20387;-68
2021/06/29 06:29:39;;;;;;;8.00;4.95;;;24.90;62.30;;;;;;5075232;28;20085;-68
2021/06/29 06:32:05;;;;;;;5.90;4.60;;;24.90;62.60;;;;;;5074939;28;20024;-68
2021/06/29 06:34:31;;;;;;;7.57;4.38;;;24.90;62.80;;;;;;5074971;28;20063;-67
2021/06/29 06:36:56;;;;;;;6.53;4.82;;;24.90;62.80;;;;;;5074519;28;20124;-68
2021/06/29 06:39:22;;;;;;;6.10;4.88;;;24.90;62.90;;;;;;5074868;28;20054;-68
2021/06/29 06:41:48;;;;;;;7.47;4.72;;;24.90;62.90;;;;;;5074796;28;20032;-67
2021/06/29 06:44:13;;;;;;;7.47;4.80;;;24.90;63.00;;;;;;5074839;28;20439;-69
2021/06/29 06:46:39;;;;;;;6.40;4.93;;;24.90;63.10;;;;;;5074605;28;20032;-68
2021/06/29 06:49:05;;;;;;;7.47;5.75;;;24.80;63.50;;;;;;5073359;28;20028;-67
2021/06/29 06:51:30;;;;;;;9.75;5.82;;;24.70;63.60;;;;;;5074500;28;20384;-67
2021/06/29 06:53:56;;;;;;;6.93;4.97;;;24.70;63.90;;;;;;5074637;28;20044;-67
2021/06/29 06:56:22;;;;;;;9.63;5.55;;;24.70;64.20;;;;;;5074470;28;20024;-67
2021/06/29 06:58:47;;;;;;;7.20;6.50;;;24.70;64.10;;;;;;5074403;28;20029;-67
2021/06/29 07:01:15;;;;;;;9.00;5.35;;;24.70;64.20;;;;;;5074036;28;20518;-67
2021/06/29 07:03:40;;;;;;;8.45;6.15;;;24.70;64.30;;;;;;5074246;28;20105;-67
2021/06/29 07:06:06;;;;;;;9.65;5.78;;;24.70;64.70;;;;;;5074142;28;20082;-67
2021/06/29 07:08:33;;;;;;;9.00;6.25;;;24.70;64.80;;;;;;5074056;28;20032;-67
2021/06/29 07:11:00;;;;;;;8.18;6.68;;;24.70;64.70;;;;;;5074085;28;20031;-67
2021/06/29 07:13:25;;;;;;;7.05;6.43;;;24.60;64.90;;;;;;5072617;28;20463;-66
2021/06/29 07:15:51;;;;;;;5.55;4.97;;;24.60;65.30;;;;;;5070457;28;20107;-67
2021/06/29 07:18:18;;;;;;;9.25;7.72;;;24.60;65.20;;;;;;5059520;28;20104;-65
2021/06/29 07:20:45;;;;;;;8.10;6.60;;;24.60;64.90;;;;;;5060254;28;20124;-65
2021/06/29 07:23:11;;;;;;;8.02;6.72;;;24.60;65.00;;;;;;5070696;28;20039;-64
2021/06/29 07:25:37;;;;;;;9.85;7.03;;;24.50;65.30;;;;;;5073622;28;20389;-65
2021/06/29 07:28:03;;;;;;;8.32;7.43;;;24.50;65.90;;;;;;5073680;28;20582;-67
2021/06/29 07:30:29;;;;;;;10.38;9.35;;;24.50;65.80;;;;;;5073560;28;20029;-66
2021/06/29 07:32:58;;;;;;;10.70;8.75;;;24.50;66.40;;;;;;5073526;28;20061;-66
2021/06/29 07:35:24;;;;;;;11.52;7.88;;;24.50;66.60;;;;;;5073253;28;20027;-77
2021/06/29 07:37:50;;;;;;;7.93;7.15;;;24.50;66.20;;;;;;5073270;28;20044;-68
2021/06/29 07:40:16;;;;;;;11.40;7.22;;;24.50;66.00;;;;;;5073393;28;20025;-68
2021/06/29 07:42:41;;;;;;;7.20;6.35;;;24.50;65.90;;;;;;5073534;28;20039;-68
2021/06/29 07:45:09;;;;;;;9.30;6.05;;;24.60;65.70;;;;;;5073221;28;20104;-68
2021/06/29 07:47:35;;;;;;;10.85;5.78;;;24.60;65.40;;;;;;5073334;28;20025;-68
2021/06/29 07:50:01;;;;;;;10.15;5.47;;;24.70;65.20;;;;;;5071767;28;20020;-68
2021/06/29 07:52:27;;;;;;;7.70;5.80;;;24.70;65.00;;;;;;5072766;28;20466;-68
2021/06/29 07:54:53;;;;;;;10.45;5.97;;;24.70;64.80;;;;;;5072876;28;20043;-68
2021/06/29 07:57:18;;;;;;;6.20;5.28;;;24.70;64.80;;;;;;5073055;28;20025;-68
2021/06/29 07:59:44;;;;;;;6.95;5.15;;;24.70;64.70;;;;;;5073040;28;20082;-68
2021/06/29 08:02:09;;;;;;;6.43;5.45;;;24.80;64.90;;;;;;5073645;28;20414;-68
2021/06/29 08:04:37;;;;;;;10.57;6.50;;;24.80;64.90;;;;;;5072849;28;20060;-68
2021/06/29 08:07:03;;;;;;;7.28;5.60;;;24.80;64.90;;;;;;5073599;28;20032;-68
2021/06/29 08:09:28;;;;;;;6.30;5.60;;;24.80;64.80;;;;;;5073313;28;20039;-68
2021/06/29 08:11:54;;;;;;;10.07;5.35;;;24.80;64.70;;;;;;5073068;28;20103;-68
2021/06/29 08:14:20;;;;;;;6.85;5.43;;;24.80;64.80;;;;;;5072245;28;20038;-68
2021/06/29 08:16:46;;;;;;;5.85;4.88;;;24.80;64.80;;;;;;5071541;28;20028;-68
2021/06/29 08:19:12;;;;;;;7.32;5.30;;;24.80;64.80;;;;;;5072698;28;20023;-68
2021/06/29 08:21:37;;;;;;;7.85;4.90;;;24.80;64.80;;;;;;5073104;28;20073;-68
2021/06/29 08:24:04;;;;;;;5.35;4.65;;;24.80;64.70;;;;;;5071602;28;20052;-68
2021/06/29 08:26:30;;;;;;;6.93;5.05;;;24.90;64.90;;;;;;5071428;28;20173;-68
2021/06/29 08:28:56;;;;;;;8.85;5.35;;;24.80;64.80;;;;;;5073080;28;20511;-68
2021/06/29 08:31:22;;;;;;;5.70;5.18;;;24.80;65.60;;;;;;5072616;28;20037;-68
2021/06/29 08:33:53;;;;;;;5.93;5.32;;;24.80;64.80;;;;;;5072577;28;20028;-68
2021/06/29 08:36:19;;;;;;;12.30;5.38;;;24.80;64.80;;;;;;5067492;28;20031;-68
2021/06/29 08:38:45;;;;;;;5.95;5.35;;;24.80;64.80;;;;;;5055305;28;20436;-68
2021/06/29 08:41:12;;;;;;;6.88;5.20;;;24.80;64.80;;;;;;5052684;28;20029;-68
2021/06/29 08:43:40;;;;;;;7.40;5.07;;;24.80;64.70;;;;;;5052804;28;20115;-68
2021/06/29 08:46:07;;;;;;;8.23;6.45;;;24.80;64.80;;;;;;5052830;28;20043;-68
2021/06/29 08:48:33;;;;;;;8.30;5.95;;;24.90;64.80;;;;;;5052733;28;20039;-68
2021/06/29 08:51:04;;;;;;;5.97;5.35;;;24.80;64.70;;;;;;5052629;28;20029;-68
2021/06/29 08:53:31;;;;;;;6.53;5.68;;;24.80;64.70;;;;;;5052863;28;20437;-68
2021/06/29 08:55:58;;;;;;;6.15;5.32;;;24.80;64.70;;;;;;5051226;28;20431;-68
2021/06/29 08:58:24;;;;;;;5.53;5.03;;;24.90;64.70;;;;;;5052547;28;20021;-68
2021/06/29 09:00:51;;;;;;;7.40;5.53;;;24.80;64.70;;;;;;5052888;28;20051;-68
2021/06/29 09:03:17;;;;;;;6.18;5.38;;;24.80;64.60;;;;;;5052593;28;20116;-68
2021/06/29 09:05:48;;;;;;;6.63;5.60;;;24.90;64.80;;;;;;5050442;28;20458;-68
2021/06/29 09:08:17;;;;;;;6.47;5.00;;;24.80;64.70;;;;;;5052314;28;20021;-68
2021/06/29 09:11:03;;;;;;;8.35;5.40;;;24.90;64.80;;;;;;5052533;28;20072;-68
2021/06/29 09:13:30;;;;;;;7.30;5.57;;;24.90;64.80;;;;;;5052082;28;20497;-68
2021/06/29 09:15:56;;;;;;;8.18;5.38;;;24.90;64.70;;;;;;5052480;28;20024;-68
2021/06/29 09:18:29;;;;;;;6.30;5.43;;;24.90;64.70;;;;;;5052335;28;20025;-68
2021/06/29 09:21:00;;;;;;;6.20;5.60;;;24.90;64.80;;;;;;5052431;28;20021;-68
2021/06/29 09:23:34;;;;;;;8.13;5.97;;;24.90;64.90;;;;;;5052148;28;20029;-68
2021/06/29 09:26:04;;;;;;;6.20;5.60;;;24.90;64.70;;;;;;5055332;28;20048;-68
2021/06/29 09:28:37;;;;;;;6.65;5.75;;;24.90;64.80;;;;;;5056071;28;20504;-68
2021/06/29 09:31:05;;;;;;;5.95;5.35;;;24.90;64.80;;;;;;5056218;28;20090;-68
2021/06/29 09:33:39;;;;;;;6.20;5.60;;;24.90;64.80;;;;;;5055877;28;20037;-68
2021/06/29 09:36:07;;;;;;;6.82;5.72;;;24.90;64.80;;;;;;5055976;28;20029;-68
2021/06/29 09:38:35;;;;;;;8.10;5.43;;;24.90;64.80;;;;;;5055527;28;20076;-68
2021/06/29 09:41:14;;;;;;;6.38;5.75;;;24.90;64.90;;;;;;5055940;28;20481;-68
2021/06/29 09:43:42;;;;;;;7.95;6.32;;;24.90;65.00;;;;;;5056016;28;20021;-68
2021/06/29 09:46:09;;;;;;;6.07;5.47;;;24.90;65.00;;;;;;5055901;28;20104;-67
2021/06/29 09:48:40;;;;;;;6.10;5.50;;;24.90;65.10;;;;;;5055589;28;20559;-68
2021/06/29 09:51:16;;;;;;;6.55;5.80;;;24.90;65.20;;;;;;5055863;28;20032;-68
2021/06/29 09:53:43;;;;;;;6.50;5.88;;;24.90;65.20;;;;;;5056113;28;20049;-68
2021/06/29 09:56:17;;;;;;;6.93;5.55;;;24.90;65.20;;;;;;5055745;28;20029;-68
2021/06/29 09:58:45;;;;;;;6.43;5.63;;;24.90;65.20;;;;;;5055679;28;20029;-68
2021/06/29 10:01:15;;;;;;;6.55;5.95;;;24.90;65.20;;;;;;5055627;28;20043;-68
2021/06/29 10:03:41;;;;;;;7.13;6.20;;;24.90;65.20;;;;;;5055563;28;20029;-68
2021/06/29 10:06:17;;;;;;;7.28;6.57;;;24.90;65.20;;;;;;5055629;28;20264;-68
2021/06/29 10:08:45;;;;;;;6.85;6.15;;;24.90;65.20;;;;;;5055577;28;20060;-68
2021/06/29 10:11:24;;;;;;;8.00;6.05;;;24.90;65.30;;;;;;5055421;28;20025;-68
2021/06/29 10:14:11;;;;;;;6.55;5.70;;;24.90;65.30;;;;;;5055144;28;20138;-68
2021/06/29 10:16:44;;;;;;;6.97;6.28;;;24.90;65.30;;;;;;5055405;28;20362;-68
2021/06/29 10:19:17;;;;;;;7.35;6.20;;;24.90;65.30;;;;;;5055173;28;20036;-68
2021/06/29 10:21:49;;;;;;;7.28;6.50;;;24.90;65.40;;;;;;5055262;28;20037;-68
2021/06/29 10:24:20;;;;;;;6.80;5.47;;;24.90;65.40;;;;;;5055213;28;20043;-68
2021/06/29 10:26:48;;;;;;;7.00;6.18;;;24.90;65.40;;;;;;5055311;28;20028;-67
2021/06/29 10:29:17;;;;;;;6.55;5.95;;;24.90;65.50;;;;;;5054136;28;20456;-67
2021/06/29 10:31:48;;;;;;;9.48;6.45;;;24.90;65.40;;;;;;5055017;28;20033;-67
2021/06/29 10:34:15;;;;;;;6.45;5.82;;;24.90;65.50;;;;;;5055001;28;20496;-67
2021/06/29 10:36:48;;;;;;;8.05;6.50;;;24.90;65.50;;;;;;5053689;28;20061;-67
2021/06/29 10:39:16;;;;;;;8.35;6.13;;;24.90;65.50;;;;;;5053791;28;20045;-68
2021/06/29 10:42:09;;;;;;;7.35;6.65;;;24.90;65.60;;;;;;5054621;28;20029;-67
2021/06/29 10:44:47;;;;;;;8.10;6.75;;;24.90;65.60;;;;;;5054635;28;20075;-67
2021/06/29 10:47:30;;;;;;;6.70;6.10;;;24.90;65.60;;;;;;5054243;28;20091;-67
2021/06/29 10:49:58;;;;;;;7.15;6.45;;;24.90;65.50;;;;;;5054601;28;20025;-67
2021/06/29 10:52:23;;;;;;;7.20;6.50;;;24.90;65.60;;;;;;5054360;28;20032;-68
2021/06/29 10:54:54;;;;;;;8.20;6.90;;;25.00;65.60;;;;;;5054595;28;20431;-68
2021/06/29 10:57:40;;;;;;;8.43;6.53;;;25.00;65.70;;;;;;5054033;28;20466;-68
2021/06/29 11:00:28;;;;;;;7.97;6.70;;;24.90;65.60;;;;;;5054269;28;20052;-68
2021/06/29 11:02:57;;;;;;;7.38;6.70;;;24.90;65.60;;;;;;5054288;28;20426;-68
2021/06/29 11:05:33;;;;;;;7.63;6.72;;;24.90;65.60;;;;;;5054259;28;20056;-68
2021/06/29 11:08:10;;;;;;;7.80;7.10;;;24.90;65.50;;;;;;5052755;28;20531;-68
2021/06/29 11:10:37;;;;;;;7.75;6.70;;;24.90;65.50;;;;;;5053699;28;20032;-68
2021/06/29 11:13:05;;;;;;;8.07;7.30;;;25.00;65.50;;;;;;5053968;28;20048;-68
2021/06/29 11:15:53;;;;;;;7.65;6.43;;;24.90;65.40;;;;;;5054106;28;20051;-68
2021/06/29 11:18:44;;;;;;;7.68;6.95;;;24.90;65.30;;;;;;5054141;28;20488;-68
2021/06/29 11:21:30;;;;;;;10.18;8.02;;;24.90;65.20;;;;;;5050247;28;20029;-69
2021/06/29 11:23:56;;;;;;;9.88;8.13;;;25.00;65.40;;;;;;5053854;28;20053;-69
2021/06/29 11:26:24;;;;;;;9.52;8.43;;;25.00;65.50;;;;;;5053483;28;20060;-68
2021/06/29 11:28:51;;;;;;;9.25;8.40;;;25.00;65.70;;;;;;5053822;28;20021;-68
2021/06/29 11:31:20;;;;;;;9.57;8.68;;;25.00;65.80;;;;;;5053604;28;20025;-69
2021/06/29 11:34:05;;;;;;;12.18;11.00;;;25.00;66.10;;;;;;5052294;28;20044;-68
2021/06/29 11:36:32;;;;;;;14.43;11.07;;;25.10;66.40;;;;;;5053713;28;20029;-68
2021/06/29 11:39:00;;;;;;;16.75;12.43;;;25.10;66.30;;;;;;5053217;28;20045;-68
2021/06/29 11:41:33;;;;;;;20.63;15.05;;;25.10;67.60;;;;;;5053338;28;20113;-68
2021/06/29 11:44:07;;;;;;;14.65;13.00;;;25.10;66.90;;;;;;5053375;28;20466;-70
2021/06/29 11:46:58;;;;;;;14.07;12.63;;;25.20;66.80;;;;;;5053575;28;20071;-71
2021/06/29 11:49:28;;;;;;;12.60;11.27;;;25.20;66.40;;;;;;5053310;28;20025;-71
2021/06/29 11:52:03;;;;;;;12.93;11.67;;;25.30;65.80;;;;;;5053175;28;20028;-70
2021/06/29 11:54:38;;;;;;;13.75;11.77;;;25.40;65.20;;;;;;5053142;28;20299;-71
2021/06/29 11:57:32;;;;;;;12.90;11.43;;;25.30;65.70;;;;;;5053046;28;20067;-70
2021/06/29 12:00:20;;;;;;;46.53;39.78;;;25.30;64.20;;;;;;5051999;28;20139;-70
2021/06/29 12:02:48;;;;;;;50.33;45.03;;;25.30;64.40;;;;;;5053187;28;20040;-70
2021/06/29 12:05:17;;;;;;;48.53;43.42;;;25.20;64.60;;;;;;5053210;28;20484;-69
2021/06/29 12:07:49;;;;;;;43.63;37.03;;;25.20;64.90;;;;;;5052977;28;20033;-70
2021/06/29 12:10:25;;;;;;;37.58;33.50;;;25.10;65.00;;;;;;5051063;28;20482;-70
2021/06/29 12:13:07;;;;;;;33.95;30.55;;;25.10;65.10;;;;;;5051137;28;20029;-69
2021/06/29 12:15:35;;;;;;;27.83;24.95;;;25.10;65.20;;;;;;5051109;28;20039;-69
2021/06/29 12:18:08;;;;;;;28.50;25.50;;;25.10;65.30;;;;;;5051185;28;20029;-69
2021/06/29 12:20:37;;;;;;;32.25;28.45;;;25.10;65.30;;;;;;5051115;28;20017;-69
2021/06/29 12:23:06;;;;;;;30.15;26.05;;;25.10;65.40;;;;;;5051271;28;20033;-69
2021/06/29 12:25:37;;;;;;;28.70;25.83;;;25.10;65.40;;;;;;5053074;28;20021;-69
2021/06/29 12:28:09;;;;;;;28.13;25.05;;;25.10;65.40;;;;;;5053053;28;20032;-69
2021/06/29 12:30:41;;;;;;;26.67;23.98;;;25.10;65.40;;;;;;5052682;28;20021;-70
2021/06/29 12:33:15;;;;;;;24.35;21.88;;;25.10;65.50;;;;;;5052841;28;20045;-70
2021/06/29 12:35:41;;;;;;;23.95;21.45;;;25.10;65.60;;;;;;5052332;28;20031;-70
2021/06/29 12:38:15;;;;;;;23.25;20.85;;;25.10;65.60;;;;;;5071799;28;20049;-70
2021/06/29 12:40:45;;;;;;;22.58;20.05;;;25.10;65.60;;;;;;5064885;28;20104;-70
2021/06/29 12:43:40;;;;;;;22.35;20.00;;;25.10;65.60;;;;;;5063400;28;20024;-70
2021/06/29 12:46:34;;;;;;;23.80;21.27;;;25.10;65.60;;;;;;5071933;28;20033;-70
2021/06/29 12:49:00;;;;;;;22.65;20.25;;;25.10;65.60;;;;;;5071880;28;20036;-68
2021/06/29 12:51:27;;;;;;;22.42;20.15;;;25.10;65.60;;;;;;5072604;28;20473;-69
2021/06/29 12:53:55;;;;;;;22.08;19.98;;;25.10;65.60;;;;;;5072709;28;20484;-70
2021/06/29 12:56:21;;;;;;;20.65;18.45;;;25.10;65.60;;;;;;5072400;28;20115;-70